Time;durP1;ratioP1;P1;durP2;ratioP2;P2;SDS_P1;SDS_P2;PMS_P1;PMS_P2;Temp;Humidity;BMP_temperature;BMP_pressure;BME280_temperature;BME280_humidity;BME280_pressure;Samples;Min_cycle;Max_cycle;Signal;HPM_P1;HPM_P2
2023/08/16 00:02:25;;;;;;;;;;;;;;;21.85;100.00;99576.13;5031245;28;828;-59
2023/08/16 00:04:52;;;;;;;;;;;;;;;21.85;100.00;99580.97;5031360;28;828;-59
2023/08/16 00:07:19;;;;;;;;;;;;;;;21.89;100.00;99571.09;5031226;28;907;-59
2023/08/16 00:09:46;;;;;;;;;;;;;;;21.97;100.00;99572.22;5031267;28;1079;-59
2023/08/16 00:12:13;;;;;;;;;;;;;;;22.01;100.00;99572.78;5032681;28;1890;-59
2023/08/16 00:14:39;;;;;;;;;;;;;;;22.04;100.00;99576.69;5034833;28;884;-59
2023/08/16 00:17:06;;;;;;;;;;;;;;;22.08;100.00;99574.44;5034855;28;837;-60
2023/08/16 00:19:32;;;;;;;;;;;;;;;22.09;100.00;99567.56;5034711;28;879;-60
2023/08/16 00:21:59;;;;;;;;;;;;;;;22.08;100.00;99577.25;5034932;28;820;-59
2023/08/16 00:24:27;;;;;;;;;;;;;;;22.06;100.00;99574.13;5034795;28;844;-60
2023/08/16 00:26:54;;;;;;;;;;;;;;;22.03;100.00;99581.53;5034590;28;875;-59
2023/08/16 00:29:19;;;;;;;;;;;;;;;22.03;100.00;99578.72;5034661;28;848;-59
2023/08/16 00:31:46;;;;;;;;;;;;;;;22.02;100.00;99576.41;5034608;28;1939;-59
2023/08/16 00:34:13;;;;;;;;;;;;;;;22.01;100.00;99583.28;5034598;28;876;-60
2023/08/16 00:36:39;;;;;;;;;;;;;;;21.98;100.00;99573.00;5034762;28;844;-59
2023/08/16 00:39:06;;;;;;;;;;;;;;;21.93;100.00;99571.63;5034573;28;879;-60
2023/08/16 00:41:33;;;;;;;;;;;;;;;21.91;100.00;99565.75;5034607;28;927;-59
2023/08/16 00:44:00;;;;;;;;;;;;;;;21.92;100.00;99567.28;5034246;28;1275;-60
2023/08/16 00:46:30;;;;;;;;;;;;;;;21.99;100.00;99560.47;5034348;28;1333;-59
2023/08/16 00:48:56;;;;;;;;;;;;;;;21.94;100.00;99544.28;5034310;28;883;-61
2023/08/16 00:51:23;;;;;;;;;;;;;;;21.95;100.00;99552.22;5034151;28;1981;-61
2023/08/16 00:53:51;;;;;;;;;;;;;;;21.95;100.00;99548.66;5034168;28;907;-60
2023/08/16 00:56:18;;;;;;;;;;;;;;;21.98;100.00;99562.53;5034067;28;844;-60
2023/08/16 00:58:44;;;;;;;;;;;;;;;21.98;100.00;99550.50;5016446;28;1145;-59
2023/08/16 01:01:11;;;;;;;;;;;;;;;22.03;100.00;99555.44;5033978;28;892;-59
2023/08/16 01:03:39;;;;;;;;;;;;;;;22.03;100.00;99569.50;5034010;28;864;-60
2023/08/16 01:06:05;;;;;;;;;;;;;;;22.10;100.00;99573.94;5033853;28;808;-61
2023/08/16 01:08:32;;;;;;;;;;;;;;;22.08;100.00;99568.03;5033760;28;877;-60
2023/08/16 01:11:17;;;;;;;;;;;;;;;22.11;100.00;99562.22;5033893;28;828;-59
2023/08/16 01:13:47;;;;;;;;;;;;;;;22.17;100.00;99574.34;5033711;28;1214;-59
2023/08/16 01:16:16;;;;;;;;;;;;;;;22.20;100.00;99566.94;5033712;28;878;-60
2023/08/16 01:18:41;;;;;;;;;;;;;;;22.22;100.00;99556.78;5033652;28;900;-60
2023/08/16 01:21:10;;;;;;;;;;;;;;;22.25;100.00;99559.88;5033569;28;861;-59
2023/08/16 01:23:55;;;;;;;;;;;;;;;22.28;100.00;99558.91;5032849;28;864;-60
2023/08/16 01:26:42;;;;;;;;;;;;;;;22.26;100.00;99559.41;5033676;28;899;-59
2023/08/16 01:29:09;;;;;;;;;;;;;;;22.20;100.00;99558.50;5033800;28;1271;-59
2023/08/16 01:31:36;;;;;;;;;;;;;;;22.21;100.00;99557.22;5033510;28;1906;-59
2023/08/16 01:34:03;;;;;;;;;;;;;;;22.17;100.00;99551.06;5033735;28;899;-59
2023/08/16 01:36:30;;;;;;;;;;;;;;;22.10;100.00;99543.75;5015652;28;1216;-60
2023/08/16 01:38:57;;;;;;;;;;;;;;;22.09;100.00;99542.22;5033485;28;888;-60
2023/08/16 01:41:36;;;;;;;;;;;;;;;22.08;100.00;99553.97;5033453;28;1023;-59
2023/08/16 01:44:05;;;;;;;;;;;;;;;22.07;100.00;99532.72;5032949;28;1281;-59
2023/08/16 01:46:32;;;;;;;;;;;;;;;22.10;100.00;99545.81;5033115;28;797;-60
2023/08/16 01:48:59;;;;;;;;;;;;;;;22.10;100.00;99552.19;5033034;28;852;-60
2023/08/16 01:51:25;;;;;;;;;;;;;;;22.11;100.00;99553.00;5032942;28;1918;-59
2023/08/16 01:53:55;;;;;;;;;;;;;;;22.08;100.00;99559.59;5015187;28;880;-59
2023/08/16 01:56:22;;;;;;;;;;;;;;;22.09;100.00;99563.97;5032994;28;852;-59
2023/08/16 01:58:49;;;;;;;;;;;;;;;22.10;100.00;99557.06;5032825;28;828;-59
2023/08/16 02:01:16;;;;;;;;;;;;;;;22.12;100.00;99557.34;5032862;28;895;-59
2023/08/16 02:03:42;;;;;;;;;;;;;;;22.14;100.00;99560.44;5032657;28;930;-60
2023/08/16 02:06:09;;;;;;;;;;;;;;;22.14;100.00;99563.28;5032731;28;854;-59
2023/08/16 02:08:37;;;;;;;;;;;;;;;22.17;100.00;99545.41;5032631;28;817;-59
2023/08/16 02:11:03;;;;;;;;;;;;;;;22.14;100.00;99557.63;5032654;28;883;-59
2023/08/16 02:13:30;;;;;;;;;;;;;;;22.14;100.00;99549.19;5032529;28;1882;-59
2023/08/16 02:16:02;;;;;;;;;;;;;;;22.12;100.00;99546.09;5032512;28;907;-59
2023/08/16 02:18:29;;;;;;;;;;;;;;;22.11;100.00;99522.03;5032777;28;1225;-60
2023/08/16 02:20:56;;;;;;;;;;;;;;;22.05;100.00;99513.50;5032550;28;1262;-59
2023/08/16 02:23:24;;;;;;;;;;;;;;;22.05;100.00;99507.88;5032629;28;1304;-60
2023/08/16 02:25:51;;;;;;;;;;;;;;;21.99;100.00;99496.53;5032837;28;864;-59
2023/08/16 02:28:18;;;;;;;;;;;;;;;21.97;100.00;99499.06;5032504;28;1204;-59
2023/08/16 02:30:44;;;;;;;;;;;;;;;21.98;100.00;99491.41;5032584;28;1291;-60
2023/08/16 02:33:11;;;;;;;;;;;;;;;21.92;100.00;99482.88;5032266;28;1878;-59
2023/08/16 02:35:37;;;;;;;;;;;;;;;21.91;100.00;99455.22;5031607;28;1289;-59
2023/08/16 02:38:04;;;;;;;;;;;;;;;21.85;100.00;99455.16;5032190;28;851;-60
2023/08/16 02:40:31;;;;;;;;;;;;;;;21.87;100.00;99468.72;5032158;28;923;-60
2023/08/16 02:42:57;;;;;;;;;;;;;;;21.84;100.00;99487.34;5032043;28;1203;-59
2023/08/16 02:45:24;;;;;;;;;;;;;;;21.79;100.00;99482.44;5032013;28;832;-60
2023/08/16 02:47:51;;;;;;;;;;;;;;;21.79;100.00;99493.69;5032051;28;892;-59
2023/08/16 02:50:18;;;;;;;;;;;;;;;21.78;100.00;99492.88;5032003;28;852;-59
2023/08/16 02:52:44;;;;;;;;;;;;;;;21.82;100.00;99503.94;5014225;28;1910;-60
2023/08/16 02:55:12;;;;;;;;;;;;;;;21.84;100.00;99506.28;5031911;28;828;-60
2023/08/16 02:57:38;;;;;;;;;;;;;;;21.92;100.00;99516.63;5031943;28;813;-59
2023/08/16 03:00:08;;;;;;;;;;;;;;;21.93;100.00;99520.22;5032056;28;801;-60
2023/08/16 03:02:35;;;;;;;;;;;;;;;21.89;100.00;99517.63;5031943;28;1273;-60
2023/08/16 03:05:02;;;;;;;;;;;;;;;21.86;100.00;99523.44;5031866;28;1183;-60
2023/08/16 03:07:30;;;;;;;;;;;;;;;21.88;100.00;99512.47;5032022;28;824;-59
2023/08/16 03:09:57;;;;;;;;;;;;;;;21.94;100.00;99533.81;5031928;28;884;-59
2023/08/16 03:12:24;;;;;;;;;;;;;;;21.95;100.00;99521.28;5031909;28;1935;-59
2023/08/16 03:14:51;;;;;;;;;;;;;;;21.93;100.00;99508.97;5031932;28;882;-59
2023/08/16 03:17:18;;;;;;;;;;;;;;;21.91;100.00;99515.09;5031892;28;836;-59
2023/08/16 03:19:45;;;;;;;;;;;;;;;21.89;100.00;99500.75;5032237;28;840;-59
2023/08/16 03:22:11;;;;;;;;;;;;;;;21.89;100.00;99514.81;5031668;28;1214;-60
2023/08/16 03:24:38;;;;;;;;;;;;;;;21.93;100.00;99515.38;5031755;28;895;-59
2023/08/16 03:27:05;;;;;;;;;;;;;;;21.94;100.00;99538.66;5031636;28;1318;-60
2023/08/16 03:29:30;;;;;;;;;;;;;;;21.98;100.00;99539.25;5031637;28;1274;-59
2023/08/16 03:31:56;;;;;;;;;;;;;;;22.00;100.00;99550.78;5031496;28;1890;-59
2023/08/16 03:34:22;;;;;;;;;;;;;;;21.96;100.00;99538.97;5031526;28;899;-59
2023/08/16 03:36:49;;;;;;;;;;;;;;;21.93;100.00;99546.31;5031527;28;887;-59
2023/08/16 03:39:16;;;;;;;;;;;;;;;21.95;100.00;99555.03;5031450;28;903;-59
2023/08/16 03:41:42;;;;;;;;;;;;;;;21.91;100.00;99560.13;5031616;28;941;-59
2023/08/16 03:44:09;;;;;;;;;;;;;;;21.91;100.00;99551.69;5031091;28;1259;-59
2023/08/16 03:46:36;;;;;;;;;;;;;;;21.90;100.00;99552.91;5014408;28;1177;-60
2023/08/16 03:49:03;;;;;;;;;;;;;;;21.92;100.00;99558.84;5035310;28;871;-60
2023/08/16 03:54:41;;;;;;;;;;;;;;;21.96;100.00;99555.84;5035398;28;1229;-59
2023/08/16 03:57:08;;;;;;;;;;;;;;;22.01;100.00;99566.41;5035206;28;828;-60
2023/08/16 03:59:35;;;;;;;;;;;;;;;22.05;100.00;99569.78;5035166;28;868;-60
2023/08/16 04:02:03;;;;;;;;;;;;;;;22.07;100.00;99564.44;5035129;28;927;-59
2023/08/16 04:04:31;;;;;;;;;;;;;;;22.10;100.00;99562.69;5035099;28;836;-59
2023/08/16 04:06:58;;;;;;;;;;;;;;;22.11;100.00;99553.75;5034963;28;824;-60
2023/08/16 04:09:25;;;;;;;;;;;;;;;22.20;100.00;99564.13;5034965;28;836;-59
2023/08/16 04:11:52;;;;;;;;;;;;;;;22.31;100.00;99552.28;5034794;28;1890;-59
2023/08/16 04:14:18;;;;;;;;;;;;;;;22.32;100.00;99553.81;5034965;28;864;-59
2023/08/16 04:16:45;;;;;;;;;;;;;;;22.32;100.00;99565.09;5034742;28;840;-61
2023/08/16 04:19:12;;;;;;;;;;;;;;;21.28;100.00;99553.88;5034761;28;817;-60
2023/08/16 04:21:38;;;;;;;;;;;;;;;20.33;100.00;99545.00;5034735;28;816;-60
2023/08/16 04:24:05;;;;;;;;;;;;;;;20.01;100.00;99552.94;5034623;28;911;-60
2023/08/16 04:26:31;;;;;;;;;;;;;;;19.92;100.00;99556.56;5034871;28;824;-60
2023/08/16 04:28:59;;;;;;;;;;;;;;;20.00;100.00;99557.00;5034554;28;824;-60
2023/08/16 04:31:26;;;;;;;;;;;;;;;20.18;100.00;99548.53;5034434;28;1944;-60
2023/08/16 04:33:52;;;;;;;;;;;;;;;20.62;100.00;99527.53;5034452;28;864;-60
2023/08/16 04:36:19;;;;;;;;;;;;;;;21.10;100.00;99515.44;5034690;28;857;-59
2023/08/16 04:38:47;;;;;;;;;;;;;;;21.47;100.00;99493.41;5034390;28;820;-60
2023/08/16 04:41:14;;;;;;;;;;;;;;;21.67;100.00;99481.47;5034403;28;1011;-61
2023/08/16 04:56:43;;;;;;;;;;;;;;;22.29;100.00;99543.56;4994979;28;702;-59
2023/08/16 04:59:10;;;;;;;;;;;;;;;22.30;100.00;99554.34;4993815;28;864;-59
2023/08/16 05:13:47;;;;;;;;;;;;;;;22.87;100.00;99496.66;4993908;28;1903;-59
2023/08/16 05:16:21;;;;;;;;;;;;;;;23.06;100.00;99511.25;4994393;28;836;-59
2023/08/16 05:18:48;;;;;;;;;;;;;;;23.24;100.00;99521.44;4994360;28;817;-60
2023/08/16 05:21:15;;;;;;;;;;;;;;;23.37;100.00;99526.69;4994395;28;820;-60
2023/08/16 05:23:42;;;;;;;;;;;;;;;23.50;100.00;99541.19;4994319;28;844;-59
2023/08/16 05:26:10;;;;;;;;;;;;;;;23.79;100.00;99578.91;4994290;28;994;-59
2023/08/16 05:28:37;;;;;;;;;;;;;;;24.10;100.00;99586.59;4994216;28;918;-59
2023/08/16 05:31:09;;;;;;;;;;;;;;;24.29;100.00;99586.22;4994083;28;824;-59
2023/08/16 05:33:37;;;;;;;;;;;;;;;24.69;100.00;99590.88;4994113;28;1953;-59
2023/08/16 05:36:04;;;;;;;;;;;;;;;25.20;100.00;99599.56;4994102;28;995;-59
2023/08/16 05:38:31;;;;;;;;;;;;;;;25.68;100.00;99593.78;4993936;28;891;-59
2023/08/16 05:40:57;;;;;;;;;;;;;;;25.71;100.00;99600.50;4993959;28;871;-59
2023/08/16 05:43:24;;;;;;;;;;;;;;;25.87;100.00;99598.94;4994076;28;905;-58
2023/08/16 05:45:51;;;;;;;;;;;;;;;26.03;100.00;99603.09;4993883;28;834;-58
2023/08/16 05:48:19;;;;;;;;;;;;;;;26.03;100.00;99609.53;4993781;28;876;-58
2023/08/16 05:50:45;;;;;;;;;;;;;;;26.14;100.00;99608.75;5008890;28;1311;-58
2023/08/16 05:53:12;;;;;;;;;;;;;;;26.07;100.00;99597.94;4993721;28;1947;-59
2023/08/16 05:55:39;;;;;;;;;;;;;;;26.00;100.00;99601.28;5019594;28;1279;-58
2023/08/16 05:58:06;;;;;;;;;;;;;;;25.96;100.00;99601.53;5032956;28;841;-59
2023/08/16 06:00:34;;;;;;;;;;;;;;;25.93;100.00;99596.16;5033119;28;828;-58
2023/08/16 06:03:01;;;;;;;;;;;;;;;25.83;100.00;99589.94;5032881;28;844;-58
2023/08/16 06:05:28;;;;;;;;;;;;;;;25.81;100.00;99584.00;5015118;28;1584;-59
2023/08/16 06:07:57;;;;;;;;;;;;;;;26.07;100.00;99580.94;5032751;28;816;-58
2023/08/16 06:10:23;;;;;;;;;;;;;;;26.61;100.00;99586.31;5032500;28;864;-58
2023/08/16 06:12:50;;;;;;;;;;;;;;;27.08;100.00;99586.38;5014845;28;1914;-59
2023/08/16 06:15:17;;;;;;;;;;;;;;;27.73;100.00;99578.53;5032629;28;856;-59
2023/08/16 06:17:44;;;;;;;;;;;;;;;28.13;100.00;99586.78;5032613;28;879;-59
2023/08/16 06:20:11;;;;;;;;;;;;;;;28.29;100.00;99595.13;5032602;28;845;-59
2023/08/16 06:22:39;;;;;;;;;;;;;;;28.24;100.00;99601.63;5014319;28;1315;-59
2023/08/16 06:25:09;;;;;;;;;;;;;;;28.01;100.00;99598.22;5011485;28;1378;-59
2023/08/16 06:27:36;;;;;;;;;;;;;;;27.92;100.00;99603.47;5012660;28;809;-59
2023/08/16 06:30:03;;;;;;;;;;;;;;;27.84;100.00;99594.72;5012711;28;904;-59
2023/08/16 06:35:33;;;;;;;;;;;;;;;28.42;100.00;99619.28;5012383;28;817;-59
2023/08/16 06:38:01;;;;;;;;;;;;;;;28.69;100.00;99623.94;5012522;28;821;-58
2023/08/16 06:40:28;;;;;;;;;;;;;;;28.80;100.00;99619.44;5012427;28;916;-59
2023/08/16 06:42:55;;;;;;;;;;;;;;;29.09;100.00;99638.50;5012397;28;906;-58
2023/08/16 06:45:22;;;;;;;;;;;;;;;29.35;100.00;99622.91;5012670;28;848;-59
2023/08/16 06:47:49;;;;;;;;;;;;;;;29.35;100.00;99616.47;5012458;28;876;-58
2023/08/16 06:50:15;;;;;;;;;;;;;;;29.34;100.00;99610.00;5012434;28;817;-59
2023/08/16 06:52:42;;;;;;;;;;;;;;;28.52;100.00;99603.44;5012185;28;1886;-58
2023/08/16 06:55:10;;;;;;;;;;;;;;;28.98;100.00;99612.25;5011939;28;1271;-58
2023/08/16 06:57:38;;;;;;;;;;;;;;;29.35;100.00;99605.06;5012175;28;911;-58
2023/08/16 07:00:05;;;;;;;;;;;;;;;29.65;100.00;99604.91;5012220;28;820;-59
2023/08/16 07:02:31;;;;;;;;;;;;;;;30.19;100.00;99592.38;5012283;28;837;-59
2023/08/16 07:04:58;;;;;;;;;;;;;;;30.55;100.00;99600.56;5012404;28;880;-59
2023/08/16 07:07:23;;;;;;;;;;;;;;;30.54;100.00;99599.03;5013412;28;875;-58
2023/08/16 07:09:50;;;;;;;;;;;;;;;29.85;100.00;99587.28;5031865;28;907;-58
2023/08/16 07:12:17;;;;;;;;;;;;;;;28.97;100.00;99605.78;5031993;28;1975;-58
2023/08/16 07:14:43;;;;;;;;;;;;;;;29.34;100.00;99584.41;5014081;28;1297;-59
2023/08/16 07:17:10;;;;;;;;;;;;;;;29.75;100.00;99574.75;5031843;28;840;-58
2023/08/16 07:22:40;;;;;;;;;;;;;;;29.57;100.00;99604.75;5033746;28;694;-59
2023/08/16 07:25:07;;;;;;;;;;;;;;;28.88;100.00;99621.13;5036168;28;808;-59
2023/08/16 07:27:34;;;;;;;;;;;;;;;29.63;100.00;99618.91;5018218;28;1292;-58
2023/08/16 07:30:01;;;;;;;;;;;;;;;31.01;100.00;99611.91;5035914;28;926;-59
2023/08/16 07:32:28;;;;;;;;;;;;;;;32.13;97.03;99615.09;5035769;28;1886;-59
2023/08/16 07:34:55;;;;;;;;;;;;;;;31.70;97.59;99607.78;5035892;28;832;-59
2023/08/16 07:37:21;;;;;;;;;;;;;;;32.22;95.19;99613.81;5036003;28;836;-59
2023/08/16 07:39:48;;;;;;;;;;;;;;;33.11;87.12;99615.56;5035724;28;844;-59
2023/08/16 07:42:17;;;;;;;;;;;;;;;33.05;82.57;99617.81;5035965;28;944;-58
2023/08/16 07:44:44;;;;;;;;;;;;;;;32.82;83.81;99617.69;5035529;28;931;-59
2023/08/16 07:47:11;;;;;;;;;;;;;;;32.84;77.67;99617.91;5035370;28;888;-59
2023/08/16 07:49:38;;;;;;;;;;;;;;;32.94;73.28;99623.84;5035452;28;823;-59
2023/08/16 07:52:04;;;;;;;;;;;;;;;33.15;70.66;99626.66;5035330;28;1898;-58
2023/08/16 07:54:32;;;;;;;;;;;;;;;33.76;68.61;99631.88;5035272;28;1420;-59
2023/08/16 07:56:59;;;;;;;;;;;;;;;34.41;64.75;99630.78;5035277;28;797;-59
2023/08/16 07:59:26;;;;;;;;;;;;;;;34.37;64.87;99625.44;5035316;28;821;-59
2023/08/16 08:01:54;;;;;;;;;;;;;;;34.45;63.84;99626.19;5035134;28;857;-59
2023/08/16 08:04:20;;;;;;;;;;;;;;;34.80;63.46;99620.03;5035036;28;852;-59
2023/08/16 08:06:48;;;;;;;;;;;;;;;34.60;62.82;99613.94;5035013;28;854;-59
2023/08/16 08:09:14;;;;;;;;;;;;;;;34.35;63.03;99622.38;5035103;28;856;-59
2023/08/16 08:11:41;;;;;;;;;;;;;;;34.34;64.20;99615.13;5034796;28;1910;-59
2023/08/16 08:14:08;;;;;;;;;;;;;;;34.52;63.46;99613.94;5035074;28;856;-59
2023/08/16 08:16:34;;;;;;;;;;;;;;;34.50;62.68;99616.63;5034821;28;824;-60
2023/08/16 08:19:00;;;;;;;;;;;;;;;34.36;63.68;99624.66;5035321;28;888;-60
2023/08/16 08:21:27;;;;;;;;;;;;;;;34.39;62.96;99622.00;5034993;28;805;-60
2023/08/16 08:23:54;;;;;;;;;;;;;;;34.33;64.04;99616.44;5034947;28;813;-60
2023/08/16 08:26:21;;;;;;;;;;;;;;;34.45;63.06;99608.22;5034901;28;953;-60
2023/08/16 08:28:48;;;;;;;;;;;;;;;34.60;62.86;99616.81;5034883;28;1224;-60
2023/08/16 08:31:15;;;;;;;;;;;;;;;34.65;62.44;99610.13;5034889;28;1208;-60
2023/08/16 08:33:45;;;;;;;;;;;;;;;34.69;62.32;99612.59;5034648;28;1890;-60
2023/08/16 08:36:11;;;;;;;;;;;;;;;34.44;63.21;99613.19;5034448;28;816;-60
2023/08/16 08:38:41;;;;;;;;;;;;;;;34.75;62.95;99616.03;5034455;28;825;-60
2023/08/16 08:41:08;;;;;;;;;;;;;;;35.04;61.73;99622.28;5034427;28;884;-60
2023/08/16 08:43:35;;;;;;;;;;;;;;;34.86;62.80;99629.22;5034789;28;1023;-60
2023/08/16 08:46:05;;;;;;;;;;;;;;;35.10;62.22;99616.31;5034220;28;1390;-60
2023/08/16 08:48:32;;;;;;;;;;;;;;;34.48;62.62;99613.59;5034161;28;829;-60
2023/08/16 08:51:02;;;;;;;;;;;;;;;33.55;65.50;99617.66;5034292;28;840;-60
2023/08/16 08:53:29;;;;;;;;;;;;;;;33.60;65.66;99610.25;5018166;28;1990;-60
2023/08/16 08:56:02;;;;;;;;;;;;;;;34.20;63.88;99613.78;5014207;28;1493;-60
2023/08/16 08:58:30;;;;;;;;;;;;;;;34.86;60.64;99600.50;5014216;28;927;-60
2023/08/16 09:00:58;;;;;;;;;;;;;;;34.87;58.92;99596.31;5014316;28;824;-59
2023/08/16 09:03:27;;;;;;;;;;;;;;;34.97;57.98;99600.06;5014334;28;840;-60
2023/08/16 09:05:53;;;;;;;;;;;;;;;35.42;57.08;99592.66;5014415;28;927;-60
2023/08/16 09:08:23;;;;;;;;;;;;;;;36.26;54.21;99602.84;5014315;28;1369;-59
2023/08/16 09:10:52;;;;;;;;;;;;;;;36.78;51.56;99597.13;5013996;28;812;-60
2023/08/16 09:13:20;;;;;;;;;;;;;;;36.87;50.91;99610.13;5013983;28;1918;-60
2023/08/16 09:15:46;;;;;;;;;;;;;;;37.28;50.60;99606.94;5013917;28;894;-60
2023/08/16 09:18:14;;;;;;;;;;;;;;;37.07;50.16;99611.03;5014018;28;840;-60
2023/08/16 09:20:42;;;;;;;;;;;;;;;36.59;50.70;99617.09;5013852;28;895;-60
2023/08/16 09:23:17;;;;;;;;;;;;;;;36.39;51.64;99619.00;5013835;28;848;-60
2023/08/16 09:25:44;;;;;;;;;;;;;;;36.72;50.78;99608.16;5013797;28;843;-60
2023/08/16 09:28:12;;;;;;;;;;;;;;;36.08;51.39;99621.34;5013736;28;837;-61
2023/08/16 09:30:38;;;;;;;;;;;;;;;35.42;51.07;99617.72;5013652;28;899;-60
2023/08/16 09:33:05;;;;;;;;;;;;;;;35.60;52.05;99633.72;5013636;28;1894;-60
2023/08/16 09:35:38;;;;;;;;;;;;;;;35.62;50.77;99608.03;5013610;28;940;-60
2023/08/16 09:38:04;;;;;;;;;;;;;;;35.31;51.41;99624.66;5013536;28;1330;-60
2023/08/16 09:40:31;;;;;;;;;;;;;;;35.26;51.22;99617.81;5013538;28;920;-60
2023/08/16 09:43:01;;;;;;;;;;;;;;;35.39;51.07;99616.78;5013829;28;1025;-60
2023/08/16 09:45:28;;;;;;;;;;;;;;;35.47;50.89;99634.75;5012981;28;869;-60
2023/08/16 09:47:56;;;;;;;;;;;;;;;35.17;50.06;99630.66;5013573;28;808;-60
2023/08/16 09:50:23;;;;;;;;;;;;;;;35.20;51.22;99628.75;5013556;28;805;-60
2023/08/16 09:52:50;;;;;;;;;;;;;;;35.42;52.23;99621.38;5013322;28;1953;-60
2023/08/16 09:55:33;;;;;;;;;;;;;;;35.60;51.00;99624.34;5013028;28;1256;-61
2023/08/16 09:58:00;;;;;;;;;;;;;;;35.38;50.65;99632.50;5013192;28;869;-60
2023/08/16 10:00:27;;;;;;;;;;;;;;;35.17;52.00;99622.06;5013167;28;824;-60
2023/08/16 10:02:56;;;;;;;;;;;;;;;35.48;52.37;99621.91;5013198;28;1010;-60
2023/08/16 10:08:33;;;;;;;;;;;;;;;34.88;52.15;99632.28;5013201;28;817;-57
2023/08/16 10:42:29;;;;;;;;;;;;;;;34.09;51.91;99634.97;6071278;22;1683;-61
2023/08/16 10:44:56;;;;;;;;;;;;;;;34.35;51.12;99620.28;4992937;28;882;-59
2023/08/16 10:47:29;;;;;;;;;;;;;;;34.73;51.13;99619.47;4993089;28;886;-59
2023/08/16 10:49:56;;;;;;;;;;;;;;;34.76;51.03;99615.47;4992810;28;848;-60
2023/08/16 10:52:32;;;;;;;;;;;;;;;34.54;51.66;99604.75;4992631;28;1977;-60
2023/08/16 10:55:02;;;;;;;;;;;;;;;34.64;51.49;99619.31;4992775;28;835;-60
2023/08/16 10:57:29;;;;;;;;;;;;;;;34.70;50.18;99600.56;4991965;28;853;-61
2023/08/16 11:00:03;;;;;;;;;;;;;;;35.06;49.50;99602.34;4992832;28;859;-60
2023/08/16 11:02:36;;;;;;;;;;;;;;;34.46;50.41;99601.91;4992651;28;884;-60
2023/08/16 11:05:03;;;;;;;;;;;;;;;34.40;49.82;99603.44;4992553;28;844;-60
2023/08/16 11:07:29;;;;;;;;;;;;;;;35.11;49.04;99589.88;4992577;28;906;-61
2023/08/16 11:10:02;;;;;;;;;;;;;;;35.51;47.47;99594.88;4992476;28;828;-60
2023/08/16 11:12:31;;;;;;;;;;;;;;;35.75;45.27;99595.53;4992281;28;1890;-60
2023/08/16 11:14:58;;;;;;;;;;;;;;;35.70;43.34;99591.53;4992712;28;813;-59
2023/08/16 11:17:26;;;;;;;;;;;;;;;36.07;42.83;99585.31;4992641;28;864;-60
2023/08/16 11:19:56;;;;;;;;;;;;;;;36.21;41.65;99588.69;4992678;28;819;-60
2023/08/16 11:22:24;;;;;;;;;;;;;;;36.29;40.66;99595.88;4992336;28;910;-60
2023/08/16 11:24:51;;;;;;;;;;;;;;;36.15;40.71;99578.19;4992453;28;836;-58
2023/08/16 11:27:22;;;;;;;;;;;;;;;36.62;38.94;99577.75;4992293;28;919;-60
2023/08/16 11:29:54;;;;;;;;;;;;;;;37.02;37.60;99591.88;4992468;28;844;-60
2023/08/16 11:32:37;;;;;;;;;;;;;;;36.99;36.23;99585.19;4992128;28;1890;-60
2023/08/16 11:35:11;;;;;;;;;;;;;;;36.42;37.63;99576.78;4992371;28;882;-59
2023/08/16 11:37:41;;;;;;;;;;;;;;;36.91;36.08;99566.47;4992299;28;848;-57
2023/08/16 11:40:11;;;;;;;;;;;;;;;37.10;35.59;99572.41;4992273;28;883;-60
2023/08/16 11:42:37;;;;;;;;;;;;;;;37.09;35.84;99573.00;4995456;28;1225;-60
2023/08/16 11:45:24;;;;;;;;;;;;;;;36.46;35.54;99563.50;5030453;28;889;-60
2023/08/16 11:47:51;;;;;;;;;;;;;;;36.62;34.75;99575.66;5031733;28;2114;-60
2023/08/16 11:50:18;;;;;;;;;;;;;;;36.69;35.08;99574.03;5031528;28;1187;-61
2023/08/16 12:04:55;;;;;;;;;;;;;;;37.12;34.46;99563.94;5051068;28;849;-60
2023/08/16 12:07:22;;;;;;;;;;;;;;;37.22;33.71;99557.50;5051569;28;820;-60
2023/08/16 12:09:49;;;;;;;;;;;;;;;37.13;34.09;99574.13;5054910;28;882;-60
2023/08/16 12:12:16;;;;;;;;;;;;;;;37.54;33.52;99565.84;5054798;28;1977;-60
2023/08/16 12:14:43;;;;;;;;;;;;;;;37.99;32.21;99562.88;5054820;28;842;-58
2023/08/16 12:17:10;;;;;;;;;;;;;;;38.19;31.28;99561.56;5054864;28;800;-59
2023/08/16 12:19:37;;;;;;;;;;;;;;;37.85;31.26;99571.16;5054839;28;871;-60
2023/08/16 12:25:06;;;;;;;;;;;;;;;37.89;30.98;99579.38;5054398;28;798;-58
2023/08/16 12:27:32;;;;;;;;;;;;;;;36.93;32.65;99566.66;5054542;28;824;-61
2023/08/16 12:29:59;;;;;;;;;;;;;;;37.37;32.53;99580.31;5054629;28;828;-61
2023/08/16 12:32:25;;;;;;;;;;;;;;;37.67;31.96;99584.91;5054437;28;1878;-60
2023/08/16 12:34:52;;;;;;;;;;;;;;;38.13;30.84;99586.31;5054577;28;855;-61
2023/08/16 12:37:19;;;;;;;;;;;;;;;38.40;30.20;99578.31;5054501;28;906;-58
2023/08/16 12:39:45;;;;;;;;;;;;;;;38.22;30.50;99584.81;5054498;28;811;-58
2023/08/16 12:42:12;;;;;;;;;;;;;;;38.49;30.36;99579.72;5054637;28;980;-58
2023/08/16 12:44:38;;;;;;;;;;;;;;;38.97;29.76;99581.16;5054287;28;1247;-58
2023/08/16 12:47:05;;;;;;;;;;;;;;;38.75;29.52;99580.19;5054261;28;874;-59
2023/08/16 12:49:31;;;;;;;;;;;;;;;38.15;30.94;99574.94;5054470;28;839;-59
2023/08/16 12:51:58;;;;;;;;;;;;;;;38.20;30.64;99568.13;5054096;28;1915;-59
2023/08/16 12:54:25;;;;;;;;;;;;;;;37.55;31.90;99589.66;5054213;28;858;-58
2023/08/16 12:56:51;;;;;;;;;;;;;;;37.54;32.00;99577.38;5054107;28;854;-58
2023/08/16 12:59:18;;;;;;;;;;;;;;;37.52;32.08;99580.09;5054089;28;896;-58
2023/08/16 13:01:46;;;;;;;;;;;;;;;37.59;32.38;99587.91;5054161;28;867;-61
2023/08/16 13:07:14;;;;;;;;;;;;;;;37.25;32.60;99587.97;5053591;28;662;-61
2023/08/16 13:09:41;;;;;;;;;;;;;;;37.26;32.77;99583.75;5053338;28;824;-58
2023/08/16 13:12:08;;;;;;;;;;;;;;;37.06;33.28;99586.44;5053786;28;1889;-58
2023/08/16 13:14:36;;;;;;;;;;;;;;;37.48;32.96;99588.41;5053873;28;891;-60
2023/08/16 13:17:03;;;;;;;;;;;;;;;38.03;32.36;99580.53;5053682;28;871;-60
2023/08/16 13:19:29;;;;;;;;;;;;;;;38.33;32.14;99581.38;5052801;28;887;-60
2023/08/16 13:21:57;;;;;;;;;;;;;;;38.67;30.98;99579.63;5053532;28;885;-60
2023/08/16 13:24:23;;;;;;;;;;;;;;;38.27;31.38;99583.78;5053612;28;863;-60
2023/08/16 13:26:50;;;;;;;;;;;;;;;37.96;32.12;99596.56;5053487;28;840;-60
2023/08/16 13:29:18;;;;;;;;;;;;;;;37.80;32.21;99589.53;5053561;28;827;-60
2023/08/16 13:31:45;;;;;;;;;;;;;;;37.31;32.34;99588.47;5053321;28;1890;-61
2023/08/16 13:46:43;;;;;;;;;;;;;;;36.84;34.15;99587.50;4972697;28;1112;-61
2023/08/16 13:49:09;;;;;;;;;;;;;;;36.68;34.49;99581.91;4972222;28;914;-60
2023/08/16 13:51:36;;;;;;;;;;;;;;;36.48;34.33;99591.69;4972316;28;896;-60
2023/08/16 13:54:03;;;;;;;;;;;;;;;36.18;35.47;99597.13;4972189;28;1967;-60
2023/08/16 13:56:30;;;;;;;;;;;;;;;36.25;35.31;99584.03;4972225;28;913;-59
2023/08/16 13:58:56;;;;;;;;;;;;;;;36.26;35.45;99597.06;4972214;28;888;-60
2023/08/16 14:01:22;;;;;;;;;;;;;;;35.46;36.91;99601.59;4972227;28;1083;-60
2023/08/16 14:03:49;;;;;;;;;;;;;;;35.05;37.35;99603.69;4972043;28;856;-59
2023/08/16 14:06:16;;;;;;;;;;;;;;;34.88;37.80;99598.56;4971959;28;816;-59
2023/08/16 14:08:43;;;;;;;;;;;;;;;35.41;37.74;99596.84;4971957;28;1056;-60
2023/08/16 14:11:09;;;;;;;;;;;;;;;35.59;37.55;99606.31;4971878;28;845;-60
2023/08/16 14:13:36;;;;;;;;;;;;;;;35.30;37.71;99595.19;4971833;28;1895;-60
2023/08/16 14:16:03;;;;;;;;;;;;;;;34.83;38.46;99605.31;4987870;28;1221;-59
2023/08/16 14:18:31;;;;;;;;;;;;;;;34.47;38.84;99591.94;4972109;28;918;-60
2023/08/16 14:20:57;;;;;;;;;;;;;;;33.96;39.41;99610.88;4981878;28;1125;-59
2023/08/16 14:23:24;;;;;;;;;;;;;;;33.52;40.57;99631.03;5052544;28;811;-60
2023/08/16 14:25:51;;;;;;;;;;;;;;;33.23;41.55;99618.13;5051146;28;1247;-60
2023/08/16 14:28:19;;;;;;;;;;;;;;;33.06;41.61;99619.34;5052471;28;865;-59
2023/08/16 14:30:48;;;;;;;;;;;;;;;32.79;41.68;99618.81;5050915;28;1211;-59
2023/08/16 14:33:17;;;;;;;;;;;;;;;32.31;42.58;99616.19;5052299;28;1863;-59
2023/08/16 14:35:44;;;;;;;;;;;;;;;32.00;43.96;99631.53;5052234;28;849;-60
2023/08/16 14:38:11;;;;;;;;;;;;;;;31.99;43.74;99630.78;5052145;28;862;-59
2023/08/16 14:40:38;;;;;;;;;;;;;;;32.07;43.88;99617.31;5052235;28;839;-59